createdAt,value
2018-12-04T00:02:37.192Z,11.42
2018-12-04T00:05:08.994Z,11.48
2018-12-04T00:07:41.830Z,11.40
2018-12-04T00:10:18.968Z,11.41
2018-12-04T00:13:00.380Z,11.47
2018-12-04T00:15:42.309Z,11.52
2018-12-04T00:18:23.442Z,11.49
2018-12-04T00:21:05.380Z,11.42
2018-12-04T00:23:41.084Z,11.48
2018-12-04T00:26:22.456Z,11.51
2018-12-04T00:29:03.795Z,11.56
2018-12-04T00:31:45.663Z,11.51
2018-12-04T00:34:21.399Z,11.60
2018-12-04T00:36:54.063Z,11.48
2018-12-04T00:39:35.257Z,11.38
2018-12-04T00:42:17.504Z,11.37
2018-12-04T00:44:59.333Z,11.30
2018-12-04T00:47:32.698Z,11.11
2018-12-04T00:50:14.529Z,11.03
2018-12-04T00:52:59.170Z,10.93
2018-12-04T00:55:42.642Z,10.93
2018-12-04T00:58:16.031Z,10.95
2018-12-04T01:00:58.007Z,10.84
2018-12-04T01:03:39.884Z,10.94
2018-12-04T01:06:23.948Z,10.77
2018-12-04T01:09:12.256Z,10.63
2018-12-04T01:11:57.988Z,10.62
2018-12-04T01:14:43.152Z,10.58
2018-12-04T01:17:16.200Z,10.65
2018-12-04T01:19:58.124Z,10.46
2018-12-04T01:22:41.144Z,10.47
2018-12-04T01:25:22.307Z,10.51
2018-12-04T01:27:55.560Z,10.59
2018-12-04T01:30:36.923Z,10.56
2018-12-04T01:33:18.740Z,10.70
2018-12-04T01:36:00.495Z,10.77
2018-12-04T01:38:43.440Z,10.83
2018-12-04T01:41:14.736Z,10.89
2018-12-04T01:43:49.578Z,10.90
2018-12-04T01:46:31.196Z,11.07
2018-12-04T01:49:05.925Z,11.07
2018-12-04T01:51:47.616Z,11.11
2018-12-04T01:54:22.324Z,11.12
2018-12-04T01:56:54.809Z,11.06
2018-12-04T01:59:27.171Z,11.02
2018-12-04T02:02:09.195Z,11.06
2018-12-04T02:04:50.975Z,10.99
2018-12-04T02:07:25.735Z,10.98
2018-12-04T02:10:07.224Z,11.05
2018-12-04T02:12:49.157Z,11.10
2018-12-04T02:15:31.016Z,11.21
2018-12-04T02:18:03.419Z,11.18
2018-12-04T02:20:45.076Z,11.17
2018-12-04T02:23:27.083Z,11.18
2018-12-04T02:26:09.047Z,11.10
2018-12-04T02:28:41.540Z,10.99
2018-12-04T02:31:23.403Z,10.85
2018-12-04T02:34:04.639Z,10.76
2018-12-04T02:36:37.808Z,10.75
2018-12-04T02:39:20.170Z,10.78
2018-12-04T02:42:01.609Z,10.90
2018-12-04T02:44:43.622Z,10.77
2018-12-04T02:47:16.759Z,10.85
2018-12-04T02:49:58.660Z,10.86
2018-12-04T02:52:40.624Z,10.84
2018-12-04T02:55:22.644Z,10.70
2018-12-04T02:57:57.580Z,10.69
2018-12-04T03:00:41.109Z,10.78
2018-12-04T03:03:23.025Z,10.83
2018-12-04T03:05:58.574Z,10.84
2018-12-04T03:08:33.790Z,10.85
2018-12-04T03:11:15.208Z,10.82
2018-12-04T03:13:57.092Z,10.83
2018-12-04T03:16:38.385Z,10.88
2018-12-04T03:19:19.960Z,10.89
2018-12-04T03:21:51.315Z,10.78
2018-12-04T03:24:33.047Z,10.82
2018-12-04T03:27:06.261Z,10.86
2018-12-04T03:29:47.498Z,10.82
2018-12-04T03:32:29.541Z,10.75
2018-12-04T03:35:11.632Z,10.71
2018-12-04T03:37:45.503Z,10.79
2018-12-04T03:40:43.085Z,10.84
2018-12-04T03:43:24.387Z,10.76
2018-12-04T03:46:06.062Z,10.87
2018-12-04T03:48:39.144Z,10.72
2018-12-04T03:51:20.868Z,10.72
2018-12-04T03:54:02.799Z,10.75
2018-12-04T03:56:38.425Z,10.71
2018-12-04T03:59:19.720Z,10.57
2018-12-04T04:02:01.625Z,10.62
2018-12-04T04:04:43.555Z,10.61
2018-12-04T04:07:16.823Z,10.49
2018-12-04T04:09:48.321Z,10.45
2018-12-04T04:12:25.320Z,10.50
2018-12-04T04:14:56.593Z,10.44
2018-12-04T04:20:31.553Z,10.30
2018-12-04T04:23:12.829Z,10.23
2018-12-04T04:25:54.003Z,10.19
2018-12-04T04:28:27.244Z,10.36
2018-12-04T04:31:09.257Z,10.36
2018-12-04T04:33:51.216Z,10.40
2018-12-04T04:36:32.488Z,10.20
2018-12-04T04:39:08.045Z,10.25
2018-12-04T04:41:49.858Z,10.19
2018-12-04T04:44:31.546Z,10.19
2018-12-04T04:47:13.586Z,10.15
2018-12-04T04:49:55.388Z,10.36
2018-12-04T04:52:42.468Z,10.47
2018-12-04T04:55:15.752Z,10.57
2018-12-04T04:57:48.933Z,10.52
2018-12-04T05:00:30.742Z,10.58
2018-12-04T05:03:04.004Z,10.55
2018-12-04T05:05:45.917Z,10.55
2018-12-04T05:08:19.291Z,10.54
2018-12-04T05:11:01.145Z,10.41
2018-12-04T05:13:32.733Z,10.36
2018-12-04T05:16:03.809Z,10.22
2018-12-04T05:18:37.096Z,10.18
2018-12-04T05:26:23.528Z,9.99
2018-12-04T05:29:05.462Z,9.91
2018-12-04T05:31:38.519Z,9.83
2018-12-04T05:34:24.396Z,9.71
2018-12-04T05:36:57.636Z,9.49
2018-12-04T05:39:38.916Z,9.37
2018-12-04T05:42:09.524Z,9.20
2018-12-04T05:44:51.437Z,9.12
2018-12-04T05:47:29.592Z,9.13
2018-12-04T05:50:02.660Z,9.04
2018-12-04T05:52:43.812Z,9.07
2018-12-04T05:55:25.788Z,9.07
2018-12-04T05:58:00.101Z,9.16
2018-12-04T06:00:37.625Z,9.19
2018-12-04T06:03:13.051Z,9.13
2018-12-04T06:05:54.453Z,9.23
2018-12-04T06:08:27.123Z,9.31
2018-12-04T06:11:08.974Z,9.24
2018-12-04T06:13:51.049Z,9.14
2018-12-04T06:16:32.944Z,9.05
2018-12-04T06:19:14.519Z,8.93
2018-12-04T06:21:56.441Z,8.94
2018-12-04T06:29:42.779Z,9.19
2018-12-04T06:32:13.720Z,9.31
2018-12-04T06:34:44.872Z,9.23
2018-12-04T06:37:17.207Z,9.16
2018-12-04T06:39:59.163Z,9.16
2018-12-04T06:42:40.234Z,9.02
2018-12-04T06:45:21.359Z,8.92
2018-12-04T06:47:53.744Z,8.89
2018-12-04T06:50:37.159Z,8.85
2018-12-04T06:53:18.928Z,8.85
2018-12-04T06:55:50.310Z,8.87
2018-12-04T06:58:22.661Z,8.91
2018-12-04T07:01:04.571Z,8.90
2018-12-04T07:03:46.571Z,8.92
2018-12-04T07:06:28.468Z,8.91
2018-12-04T07:09:10.480Z,8.90
2018-12-04T07:11:52.307Z,8.87
2018-12-04T07:14:33.379Z,8.83
2018-12-04T07:17:06.647Z,8.86
2018-12-04T07:19:48.404Z,8.95
2018-12-04T07:22:29.747Z,9.27
2018-12-04T07:25:11.554Z,9.59
2018-12-04T07:27:44.595Z,9.61
2018-12-04T07:32:50.584Z,9.79
2018-12-04T07:35:32.403Z,9.91
2018-12-04T07:38:04.811Z,9.97
2018-12-04T07:40:46.784Z,10.13
2018-12-04T07:43:28.772Z,10.30
2018-12-04T07:46:10.566Z,10.39
2018-12-04T07:48:43.884Z,10.40
2018-12-04T07:51:25.122Z,10.38
2018-12-04T07:54:07.415Z,10.36
2018-12-04T07:56:42.404Z,10.27
2018-12-04T07:59:23.939Z,10.32
2018-12-04T08:02:05.860Z,10.21
2018-12-04T08:04:47.684Z,10.36
2018-12-04T08:07:20.108Z,10.31
2018-12-04T08:10:02.105Z,10.50
2018-12-04T08:12:44.071Z,10.46
2018-12-04T08:15:15.345Z,10.47
2018-12-04T08:17:48.609Z,10.40
2018-12-04T08:20:29.814Z,10.54
2018-12-04T08:23:04.542Z,10.66
2018-12-04T08:25:46.312Z,10.61
2018-12-04T08:28:21.861Z,10.66
2018-12-04T08:30:52.539Z,10.76
2018-12-04T08:33:34.396Z,10.59
2018-12-04T08:36:16.415Z,10.46
2018-12-04T08:38:49.530Z,10.52
2018-12-04T08:41:31.475Z,10.63
2018-12-04T08:44:02.508Z,10.59
2018-12-04T08:46:35.767Z,10.47
2018-12-04T08:49:07.004Z,10.59
2018-12-04T08:51:48.088Z,10.52
2018-12-04T08:54:19.108Z,10.55
2018-12-04T08:56:52.486Z,10.56
2018-12-04T08:59:34.071Z,10.61
2018-12-04T09:02:15.980Z,10.74
2018-12-04T09:04:57.782Z,10.73
2018-12-04T09:07:30.860Z,10.69
2018-12-04T09:10:12.027Z,10.89
2018-12-04T09:12:53.148Z,10.89
2018-12-04T09:15:34.408Z,10.96
2018-12-04T09:18:06.788Z,11.02
2018-12-04T09:20:42.315Z,11.12
2018-12-04T09:23:21.479Z,10.98
2018-12-04T09:26:02.943Z,10.90
2018-12-04T09:28:36.603Z,10.97
2018-12-04T09:31:18.317Z,10.99
2018-12-04T09:33:59.614Z,11.10
2018-12-04T09:36:41.615Z,11.04
2018-12-04T09:39:23.528Z,11.16
2018-12-04T09:41:58.332Z,11.19
2018-12-04T09:44:39.783Z,11.22
2018-12-04T09:47:12.831Z,11.27
2018-12-04T09:49:44.092Z,11.33
2018-12-04T09:52:25.985Z,11.33
2018-12-04T09:54:57.453Z,11.47
2018-12-04T09:57:31.148Z,11.56
2018-12-04T10:00:07.945Z,11.61
2018-12-04T10:02:49.896Z,11.58
2018-12-04T10:05:20.763Z,11.54
2018-12-04T10:07:54.050Z,11.52
2018-12-04T10:10:36.050Z,11.63
2018-12-04T10:13:17.132Z,11.63
2018-12-04T10:15:59.085Z,11.68
2018-12-04T10:18:32.453Z,11.99
2018-12-04T10:21:03.689Z,11.68
2018-12-04T10:23:39.218Z,11.73
2018-12-04T10:26:20.704Z,11.77
2018-12-04T10:28:51.732Z,11.84
2018-12-04T10:31:33.792Z,11.72
2018-12-04T10:34:15.714Z,12.28
2018-12-04T10:36:49.008Z,12.53
2018-12-04T10:39:20.164Z,12.95
2018-12-04T10:42:02.159Z,13.33
2018-12-04T10:44:43.252Z,13.44
2018-12-04T10:47:18.592Z,12.92
2018-12-04T10:50:00.165Z,12.90
2018-12-04T10:52:41.364Z,12.64
2018-12-04T10:55:16.968Z,12.42
2018-12-04T10:57:49.647Z,12.64
2018-12-04T11:00:38.647Z,12.40
2018-12-04T11:03:14.886Z,12.32
2018-12-04T11:05:56.720Z,12.11
2018-12-04T11:08:29.967Z,11.86
2018-12-04T11:11:11.789Z,12.16
2018-12-04T11:13:46.654Z,12.25
2018-12-04T11:16:28.313Z,12.16
2018-12-04T11:19:03.696Z,12.14
2018-12-04T11:21:50.198Z,12.07
2018-12-04T11:24:32.329Z,12.13
2018-12-04T11:27:05.320Z,11.97
2018-12-04T11:29:42.984Z,12.09
2018-12-04T11:32:24.374Z,12.04
2018-12-04T11:35:06.700Z,11.52
2018-12-04T11:37:39.552Z,11.23
2018-12-04T11:40:20.689Z,11.32
2018-12-04T11:42:51.827Z,11.52
2018-12-04T11:45:33.857Z,11.67
2018-12-04T11:48:07.223Z,11.71
2018-12-04T11:50:49.140Z,12.04
2018-12-04T11:56:15.447Z,13.05
2018-12-04T11:58:47.949Z,13.16
2018-12-04T12:01:31.584Z,13.33
2018-12-04T12:04:06.705Z,12.97
2018-12-04T12:06:39.692Z,13.39
2018-12-04T12:09:21.432Z,13.74
2018-12-04T12:12:03.334Z,13.76
2018-12-04T12:14:44.812Z,13.25
2018-12-04T12:17:20.290Z,13.65
2018-12-04T12:19:51.088Z,14.49
2018-12-04T12:22:32.956Z,14.34
2018-12-04T12:25:04.696Z,14.32
2018-12-04T12:27:37.490Z,15.31
2018-12-04T12:30:18.118Z,14.32
2018-12-04T12:32:48.994Z,14.22
2018-12-04T12:35:30.499Z,14.11
2018-12-04T12:38:03.292Z,13.95
2018-12-04T12:40:44.372Z,14.34
2018-12-04T12:43:26.403Z,14.81
2018-12-04T12:46:08.346Z,15.14
2018-12-04T12:48:43.883Z,14.58
2018-12-04T12:51:18.905Z,13.63
2018-12-04T12:53:53.998Z,13.06
2018-12-04T12:56:35.763Z,14.31
2018-12-04T12:59:17.760Z,14.58
2018-12-04T13:01:59.560Z,14.15
2018-12-04T13:04:41.602Z,15.40
2018-12-04T13:07:15.041Z,14.32
2018-12-04T13:09:57.313Z,14.11
2018-12-04T13:12:39.468Z,15.46
2018-12-04T13:15:20.764Z,15.14
2018-12-04T13:17:53.245Z,15.74
2018-12-04T13:20:34.534Z,15.80
2018-12-04T13:23:20.816Z,16.64
2018-12-04T13:26:01.993Z,16.65
2018-12-04T13:28:35.309Z,16.36
2018-12-04T13:31:17.308Z,15.41
2018-12-04T13:34:00.080Z,14.42
2018-12-04T13:36:42.298Z,13.63
2018-12-04T13:39:23.671Z,13.29
2018-12-04T13:42:05.312Z,12.80
2018-12-04T13:44:44.109Z,12.84
2018-12-04T13:47:17.102Z,12.73
2018-12-04T13:49:49.470Z,12.53
2018-12-04T13:52:25.191Z,12.48
2018-12-04T13:55:06.766Z,12.33
2018-12-04T13:57:41.476Z,12.47
2018-12-04T14:00:17.243Z,12.63
2018-12-04T14:02:52.804Z,12.39
2018-12-04T14:05:34.498Z,12.47
2018-12-04T14:08:06.923Z,12.42
2018-12-04T14:10:38.222Z,12.30
2018-12-04T14:13:20.253Z,12.18
2018-12-04T14:15:51.552Z,12.08
2018-12-04T14:18:27.115Z,11.70
2018-12-04T14:21:08.748Z,11.16
2018-12-04T14:23:50.754Z,10.72
2018-12-04T14:26:32.681Z,9.95
2018-12-04T14:29:08.345Z,9.69
2018-12-04T14:31:49.749Z,9.45
2018-12-04T14:34:31.783Z,9.37
2018-12-04T14:37:04.843Z,9.23
2018-12-04T14:39:46.981Z,9.15
2018-12-04T14:42:28.792Z,9.00
2018-12-04T14:45:10.804Z,9.10
2018-12-04T14:47:45.196Z,9.00
2018-12-04T14:50:16.459Z,8.93
2018-12-04T14:52:58.179Z,8.98
2018-12-04T14:55:40.076Z,8.98
2018-12-04T14:58:13.132Z,8.90
2018-12-04T15:00:54.996Z,8.94
2018-12-04T15:03:36.932Z,8.92
2018-12-04T15:06:19.044Z,8.92
2018-12-04T15:08:52.306Z,9.00
2018-12-04T15:11:40.871Z,8.91
2018-12-04T15:14:22.057Z,8.91
2018-12-04T15:16:57.583Z,9.02
2018-12-04T15:19:40.416Z,8.88
2018-12-04T15:22:22.276Z,8.88
2018-12-04T15:25:04.390Z,8.87
2018-12-04T15:27:36.812Z,8.74
2018-12-04T15:30:23.849Z,8.61
2018-12-04T15:33:05.928Z,8.61
2018-12-04T15:35:47.950Z,8.62
2018-12-04T15:38:21.131Z,8.57
2018-12-04T15:41:02.487Z,8.52
2018-12-04T15:43:44.620Z,8.53
2018-12-04T15:46:27.462Z,8.53
2018-12-04T15:49:09.510Z,8.50
2018-12-04T15:51:51.483Z,8.38
2018-12-04T15:54:33.344Z,8.35
2018-12-04T15:57:08.844Z,8.37
2018-12-04T15:59:50.019Z,8.41
2018-12-04T16:02:36.206Z,8.36
2018-12-04T16:05:17.932Z,8.37
2018-12-04T16:07:50.316Z,8.36
2018-12-04T16:10:32.333Z,8.29
2018-12-04T16:13:16.731Z,8.32
2018-12-04T16:15:48.037Z,8.31
2018-12-04T16:18:20.909Z,8.32
2018-12-04T16:21:02.037Z,8.30
2018-12-04T16:23:43.990Z,8.34
2018-12-04T16:26:25.153Z,8.35
2018-12-04T16:29:12.365Z,8.33
2018-12-04T16:31:43.715Z,8.33
2018-12-04T16:34:25.500Z,8.30
2018-12-04T16:36:58.820Z,8.33
2018-12-04T16:39:40.688Z,8.27
2018-12-04T16:42:15.711Z,8.29
2018-12-04T16:44:57.176Z,8.23
2018-12-04T16:47:29.697Z,8.20
2018-12-04T16:50:00.943Z,8.20
2018-12-04T16:52:32.244Z,8.18
2018-12-04T16:55:14.244Z,8.15
2018-12-04T16:57:47.601Z,8.17
2018-12-04T17:03:02.604Z,8.14
2018-12-04T17:05:46.507Z,8.14
2018-12-04T17:08:21.972Z,8.15
2018-12-04T17:11:04.265Z,8.16
2018-12-04T17:13:45.702Z,8.12
2018-12-04T17:16:19.090Z,8.15
2018-12-04T17:18:52.512Z,8.12
2018-12-04T17:21:34.285Z,8.11
2018-12-04T17:24:15.361Z,8.11
2018-12-04T17:26:48.628Z,8.11
2018-12-04T17:29:19.603Z,8.11
2018-12-04T17:32:01.458Z,8.10
2018-12-04T17:34:38.252Z,8.10
2018-12-04T17:37:11.514Z,8.11
2018-12-04T17:39:54.116Z,8.10
2018-12-04T17:42:35.791Z,8.10
2018-12-04T17:45:09.373Z,8.09
2018-12-04T17:47:43.536Z,8.09
2018-12-04T17:50:25.291Z,8.08
2018-12-04T17:53:07.339Z,8.05
2018-12-04T17:55:38.617Z,8.03
2018-12-04T17:58:12.278Z,8.03
2018-12-04T18:00:54.270Z,8.06
2018-12-04T18:03:31.676Z,8.05
2018-12-04T18:06:17.125Z,8.03
2018-12-04T18:08:50.293Z,8.02
2018-12-04T18:11:32.404Z,7.99
2018-12-04T18:14:05.320Z,7.98
2018-12-04T18:16:38.092Z,7.93
2018-12-04T18:19:20.210Z,7.89
2018-12-04T18:22:02.139Z,7.88
2018-12-04T18:24:44.124Z,7.85
2018-12-04T18:27:17.321Z,7.84
2018-12-04T18:30:03.441Z,7.79
2018-12-04T18:32:45.348Z,7.79
2018-12-04T18:35:26.428Z,7.80
2018-12-04T18:38:01.896Z,7.81
2018-12-04T18:40:32.856Z,7.84
2018-12-04T18:43:06.354Z,7.83
2018-12-04T18:45:37.044Z,7.81
2018-12-04T18:48:11.148Z,7.79
2018-12-04T18:50:46.116Z,7.78
2018-12-04T18:53:27.173Z,7.78
2018-12-04T18:56:00.243Z,7.74
2018-12-04T18:58:32.635Z,7.74
2018-12-04T19:01:15.470Z,7.76
2018-12-04T19:04:03.572Z,7.79
2018-12-04T19:06:37.000Z,7.75
2018-12-04T19:12:10.365Z,7.81
2018-12-04T19:14:52.332Z,7.82
2018-12-04T19:17:27.122Z,7.82
2018-12-04T19:20:03.980Z,7.78
2018-12-04T19:22:45.911Z,7.78
2018-12-04T19:25:33.435Z,7.75
2018-12-04T19:28:05.996Z,7.78
2018-12-04T19:33:44.860Z,7.75
2018-12-04T19:36:24.319Z,7.76
2018-12-04T19:38:57.013Z,7.76
2018-12-04T19:41:44.955Z,7.70
2018-12-04T19:44:29.663Z,7.71
2018-12-04T19:47:05.817Z,7.67
2018-12-04T19:49:46.490Z,7.67
2018-12-04T19:52:27.952Z,7.64
2018-12-04T19:55:10.221Z,7.65
2018-12-04T19:57:44.590Z,7.67
2018-12-04T20:00:22.204Z,7.65
2018-12-04T20:03:05.480Z,7.61
2018-12-04T20:05:47.692Z,7.65
2018-12-04T20:08:22.570Z,7.63
2018-12-04T20:11:01.672Z,7.64
2018-12-04T20:13:38.076Z,7.62
2018-12-04T20:16:22.597Z,7.58
2018-12-04T20:19:07.426Z,7.60
2018-12-04T20:21:49.433Z,7.58
2018-12-04T20:24:32.979Z,7.58
2018-12-04T20:27:06.303Z,7.57
2018-12-04T20:29:53.330Z,7.60
2018-12-04T20:32:35.093Z,7.64
2018-12-04T20:35:18.668Z,7.65
2018-12-04T20:37:52.640Z,7.66
2018-12-04T20:40:31.596Z,7.65
2018-12-04T20:43:14.189Z,7.64
2018-12-04T20:45:57.886Z,7.61
2018-12-04T20:48:34.909Z,7.58
2018-12-04T20:51:08.706Z,7.57
2018-12-04T20:53:53.273Z,7.55
2018-12-04T20:56:36.682Z,7.54
2018-12-04T20:59:19.349Z,7.51
2018-12-04T21:02:04.161Z,7.54
2018-12-04T21:04:48.162Z,7.51
2018-12-04T21:07:27.787Z,7.52
2018-12-04T21:10:13.640Z,7.48
2018-12-04T21:12:55.253Z,7.47
2018-12-04T21:15:37.057Z,7.50
2018-12-04T21:21:31.269Z,7.53
2018-12-04T21:24:13.726Z,7.58
2018-12-04T21:26:57.392Z,7.60
2018-12-04T21:29:36.480Z,7.57
2018-12-04T21:32:26.564Z,7.52
2018-12-04T21:35:14.074Z,7.51
2018-12-04T21:37:55.572Z,7.48
2018-12-04T21:40:45.851Z,7.50
2018-12-04T21:43:38.746Z,7.44
2018-12-04T21:46:28.248Z,7.42
2018-12-04T21:49:14.057Z,7.40
2018-12-04T21:51:56.409Z,7.39
2018-12-04T21:54:37.908Z,7.40
2018-12-04T21:57:16.025Z,7.42
2018-12-04T21:59:47.456Z,7.40
2018-12-04T22:02:22.921Z,7.40
2018-12-04T22:04:55.864Z,7.37
2018-12-04T22:07:29.183Z,7.37
2018-12-04T22:10:05.213Z,7.40
2018-12-04T22:12:49.811Z,7.39
2018-12-04T22:15:31.922Z,7.37
2018-12-04T22:18:05.884Z,7.39
2018-12-04T22:20:48.428Z,7.40
2018-12-04T22:23:33.322Z,7.37
2018-12-04T22:26:04.444Z,7.35
2018-12-04T22:28:38.432Z,7.33
2018-12-04T22:31:20.281Z,7.28
2018-12-04T22:34:04.698Z,7.27
2018-12-04T22:36:40.136Z,7.28
2018-12-04T22:39:15.055Z,7.30
2018-12-04T22:42:00.373Z,7.31
2018-12-04T22:44:43.523Z,7.28
2018-12-04T22:47:16.335Z,7.27
2018-12-04T22:49:58.228Z,7.28
2018-12-04T22:52:40.145Z,7.25
2018-12-04T22:55:11.416Z,7.25
2018-12-04T22:57:52.149Z,7.24
2018-12-04T23:00:38.597Z,7.26
2018-12-04T23:03:20.008Z,7.27
2018-12-04T23:06:03.171Z,7.28
2018-12-04T23:08:38.318Z,7.29
2018-12-04T23:11:19.473Z,7.28
2018-12-04T23:14:00.682Z,7.25
2018-12-04T23:16:47.843Z,7.23
2018-12-04T23:19:29.913Z,7.26
2018-12-04T23:22:01.199Z,7.27
2018-12-04T23:24:43.084Z,7.27
2018-12-04T23:27:16.327Z,7.26
2018-12-04T23:29:57.625Z,7.25
2018-12-04T23:32:30.068Z,7.25
2018-12-04T23:35:06.695Z,7.23
2018-12-04T23:37:39.356Z,7.25
2018-12-04T23:40:21.284Z,7.22
2018-12-04T23:43:03.286Z,7.20
2018-12-04T23:45:45.327Z,7.19
2018-12-04T23:48:18.227Z,7.20
2018-12-04T23:50:53.919Z,7.20
2018-12-04T23:53:43.867Z,7.19
2018-12-04T23:56:23.211Z,7.16
2018-12-04T23:58:56.247Z,7.09
